Time;durP1;ratioP1;P1;durP2;ratioP2;P2;SDS_P1;SDS_P2;PMS_P1;PMS_P2;Temp;Humidity;BMP_temperature;BMP_pressure;BME280_temperature;BME280_humidity;BME280_pressure;Samples;Min_cycle;Max_cycle;Signal;HPM_P1;HPM_P2
2020/12/19 00:02:11;;;;;;;9.98;7.25;;;8.60;73.40;;;;;;2438426;56;21408;-71
2020/12/19 00:04:39;;;;;;;10.45;6.97;;;8.60;73.10;;;;;;2229953;55;20972;-71
2020/12/19 00:07:06;;;;;;;10.15;6.90;;;8.60;73.10;;;;;;2462067;55;21116;-71
2020/12/19 00:09:32;;;;;;;12.55;7.97;;;8.60;73.00;;;;;;2238548;56;21100;-71
2020/12/19 00:12:02;;;;;;;10.32;6.37;;;8.60;73.00;;;;;;2461896;55;21558;-71
2020/12/19 00:14:29;;;;;;;10.27;6.82;;;8.60;73.10;;;;;;2238336;56;20956;-71
2020/12/19 00:16:55;;;;;;;11.02;7.55;;;8.60;73.10;;;;;;2238870;56;21422;-71
2020/12/19 00:19:22;;;;;;;11.18;7.35;;;8.60;73.10;;;;;;2234120;56;21118;-71
2020/12/19 00:21:49;;;;;;;11.50;7.45;;;8.60;73.10;;;;;;2227762;55;21012;-71
2020/12/19 00:24:15;;;;;;;11.02;6.93;;;8.60;73.20;;;;;;2227047;55;21064;-70
2020/12/19 00:26:42;;;;;;;11.45;7.47;;;8.60;73.30;;;;;;2461868;55;20953;-71
2020/12/19 00:29:11;;;;;;;11.68;7.10;;;8.60;73.40;;;;;;2238499;56;20988;-71
2020/12/19 00:31:40;;;;;;;10.32;6.55;;;8.60;74.10;;;;;;2238651;56;21222;-71
2020/12/19 00:34:06;;;;;;;11.35;7.72;;;8.60;73.40;;;;;;2238664;56;21052;-71
2020/12/19 00:36:32;;;;;;;11.63;7.10;;;8.60;73.40;;;;;;2448080;55;21051;-72
2020/12/19 00:38:59;;;;;;;10.77;7.40;;;8.60;73.40;;;;;;2237414;56;21064;-72
2020/12/19 00:41:45;;;;;;;10.05;6.72;;;8.60;73.40;;;;;;2236071;56;21851;-71
2020/12/19 00:44:11;;;;;;;12.63;7.57;;;8.60;73.20;;;;;;2239097;56;21501;-72
2020/12/19 00:46:38;;;;;;;10.55;6.95;;;8.70;73.50;;;;;;2444728;55;21039;-71
2020/12/19 00:49:04;;;;;;;13.20;7.20;;;8.70;73.50;;;;;;2457396;56;21003;-71
2020/12/19 00:51:31;;;;;;;11.48;7.75;;;8.70;73.50;;;;;;2450715;56;20977;-71
2020/12/19 00:53:57;;;;;;;11.75;7.65;;;8.70;73.50;;;;;;2451970;55;21056;-71
2020/12/19 00:56:26;;;;;;;11.45;7.78;;;8.70;73.40;;;;;;2228769;56;20941;-71
2020/12/19 00:58:53;;;;;;;10.90;6.93;;;8.70;73.40;;;;;;2235317;56;21030;-71
2020/12/19 01:01:22;;;;;;;10.10;6.68;;;8.70;73.40;;;;;;2227291;56;21221;-71
2020/12/19 01:03:49;;;;;;;10.68;7.43;;;8.70;73.40;;;;;;2445779;56;20965;-71
2020/12/19 01:06:18;;;;;;;9.65;7.00;;;8.70;73.40;;;;;;2232413;56;21118;-71
2020/12/19 01:08:45;;;;;;;9.00;6.32;;;8.80;73.50;;;;;;2224712;55;21006;-71
2020/12/19 01:11:23;;;;;;;10.50;6.30;;;8.80;73.50;;;;;;2417759;56;21107;-71
2020/12/19 01:13:50;;;;;;;9.45;6.15;;;8.80;73.50;;;;;;2207161;57;20985;-71
2020/12/19 01:16:19;;;;;;;12.05;6.90;;;8.80;73.50;;;;;;2232883;55;20988;-71
2020/12/19 01:18:48;;;;;;;12.82;7.65;;;8.80;73.50;;;;;;2228522;55;21000;-72
2020/12/19 01:21:16;;;;;;;10.00;6.45;;;8.80;73.40;;;;;;2461561;55;22684;-71
2020/12/19 01:23:46;;;;;;;10.20;6.75;;;8.80;73.40;;;;;;2462516;55;21884;-71
2020/12/19 01:26:13;;;;;;;9.88;6.18;;;8.80;73.40;;;;;;2455788;55;20998;-71
2020/12/19 01:28:39;;;;;;;9.88;6.70;;;8.80;73.50;;;;;;2230085;55;20970;-71
2020/12/19 01:31:07;;;;;;;10.73;6.65;;;8.90;73.50;;;;;;2224406;55;20974;-71
2020/12/19 01:33:34;;;;;;;10.20;6.65;;;8.90;73.50;;;;;;2236544;55;21036;-71
2020/12/19 01:36:00;;;;;;;10.57;6.12;;;8.90;73.40;;;;;;2234178;56;21031;-71
2020/12/19 01:38:27;;;;;;;10.27;7.07;;;8.90;73.30;;;;;;2441494;55;20994;-72
2020/12/19 01:40:56;;;;;;;8.60;6.10;;;8.90;73.30;;;;;;2209516;56;21082;-71
2020/12/19 01:43:23;;;;;;;10.50;7.12;;;8.90;73.30;;;;;;2237513;55;20944;-71
2020/12/19 01:45:50;;;;;;;12.25;7.72;;;8.90;73.30;;;;;;2236222;56;21036;-71
2020/12/19 01:48:24;;;;;;;9.57;6.35;;;8.90;73.20;;;;;;2230223;56;20972;-71
2020/12/19 01:50:52;;;;;;;10.13;6.30;;;8.90;72.90;;;;;;2228888;55;21073;-71
2020/12/19 01:53:21;;;;;;;8.80;5.65;;;8.90;72.90;;;;;;2452270;55;21021;-71
2020/12/19 01:55:48;;;;;;;9.32;6.43;;;8.90;72.70;;;;;;2445184;56;21934;-71
2020/12/19 01:58:14;;;;;;;9.88;6.30;;;8.80;72.60;;;;;;2450499;56;21435;-71
2020/12/19 02:00:41;;;;;;;9.70;6.43;;;8.80;72.50;;;;;;2230916;56;21448;-72
2020/12/19 02:03:13;;;;;;;8.73;5.22;;;8.80;72.50;;;;;;2237843;56;20994;-71
2020/12/19 02:05:46;;;;;;;9.02;6.12;;;8.80;72.60;;;;;;2229701;55;20943;-71
2020/12/19 02:08:12;;;;;;;7.97;5.65;;;8.80;72.40;;;;;;2235380;55;20985;-70
2020/12/19 02:10:39;;;;;;;8.77;4.80;;;8.70;72.30;;;;;;2225424;56;20961;-71
2020/12/19 02:13:05;;;;;;;8.35;5.78;;;8.70;72.30;;;;;;2453955;55;21824;-71
2020/12/19 02:15:44;;;;;;;7.97;5.25;;;8.70;72.10;;;;;;2229625;55;21134;-70
2020/12/19 02:18:12;;;;;;;6.70;4.55;;;8.60;71.60;;;;;;2226176;55;21057;-71
2020/12/19 02:20:38;;;;;;;7.80;5.60;;;8.60;71.50;;;;;;2230312;56;21043;-71
2020/12/19 02:23:06;;;;;;;8.38;4.87;;;8.60;71.40;;;;;;2459284;56;20964;-71
2020/12/19 02:25:45;;;;;;;7.55;4.90;;;8.50;71.30;;;;;;2462701;55;21807;-70
2020/12/19 02:28:11;;;;;;;7.47;5.10;;;8.50;71.00;;;;;;2238375;56;20990;-71
2020/12/19 02:30:37;;;;;;;8.48;4.90;;;8.40;71.00;;;;;;2228675;56;20988;-70
2020/12/19 02:33:05;;;;;;;7.90;5.03;;;8.40;70.90;;;;;;2238947;56;20977;-71
2020/12/19 02:35:32;;;;;;;7.70;5.43;;;8.30;70.80;;;;;;2239415;56;21573;-71
2020/12/19 02:38:01;;;;;;;6.62;4.35;;;8.30;70.80;;;;;;2240260;56;21014;-71
2020/12/19 02:40:33;;;;;;;7.95;4.68;;;8.20;70.70;;;;;;2226039;55;21494;-71
2020/12/19 02:43:00;;;;;;;7.78;5.12;;;8.20;70.70;;;;;;2234338;56;20969;-71
2020/12/19 02:45:26;;;;;;;7.80;5.05;;;8.10;70.70;;;;;;2445924;56;21435;-71
2020/12/19 02:47:53;;;;;;;8.77;5.00;;;8.10;70.70;;;;;;2228428;56;20971;-71
2020/12/19 02:50:20;;;;;;;8.38;5.65;;;8.10;70.70;;;;;;2444111;55;20950;-71
2020/12/19 02:52:47;;;;;;;6.85;4.10;;;8.00;70.80;;;;;;2462448;55;20965;-70
2020/12/19 02:55:17;;;;;;;7.65;5.22;;;7.90;70.80;;;;;;2462636;55;20952;-71
2020/12/19 02:57:44;;;;;;;9.85;6.28;;;7.90;71.00;;;;;;2462636;56;21004;-71
2020/12/19 03:00:10;;;;;;;9.30;5.78;;;7.70;71.00;;;;;;2462382;55;20968;-70
2020/12/19 03:02:37;;;;;;;10.68;6.50;;;7.80;71.30;;;;;;2231134;56;20959;-71
2020/12/19 03:05:07;;;;;;;9.07;5.95;;;7.80;71.50;;;;;;2235761;56;21073;-71
2020/12/19 03:07:34;;;;;;;9.30;5.72;;;7.80;71.80;;;;;;2209434;56;21015;-71
2020/12/19 03:10:01;;;;;;;9.38;5.62;;;7.80;71.90;;;;;;2238740;56;20952;-71
2020/12/19 03:12:27;;;;;;;7.50;4.70;;;7.80;72.20;;;;;;2238809;56;21048;-71
2020/12/19 03:14:53;;;;;;;9.63;5.40;;;7.80;72.40;;;;;;2227421;56;20995;-71
2020/12/19 03:17:20;;;;;;;8.55;5.28;;;7.80;72.60;;;;;;2444869;55;21014;-71
2020/12/19 03:19:48;;;;;;;7.85;5.18;;;7.80;72.80;;;;;;2455560;55;21004;-71
2020/12/19 03:22:15;;;;;;;8.68;4.87;;;7.80;72.90;;;;;;2461978;55;21482;-71
2020/12/19 03:24:42;;;;;;;8.35;5.40;;;7.80;73.10;;;;;;2232065;55;20974;-71
2020/12/19 03:27:08;;;;;;;8.82;5.28;;;7.90;73.30;;;;;;2462674;55;20968;-71
2020/12/19 03:29:34;;;;;;;8.68;5.62;;;7.90;73.30;;;;;;2238952;56;20945;-70
2020/12/19 03:32:01;;;;;;;7.75;4.43;;;7.90;73.30;;;;;;2462760;55;21510;-71
2020/12/19 03:34:27;;;;;;;6.90;4.50;;;7.90;73.40;;;;;;2237879;55;21504;-71
2020/12/19 03:36:54;;;;;;;7.65;4.75;;;7.90;73.50;;;;;;2239011;55;20980;-71
2020/12/19 03:39:21;;;;;;;7.07;4.65;;;8.00;73.60;;;;;;2228356;56;21689;-71
2020/12/19 03:41:48;;;;;;;5.93;3.72;;;8.00;73.60;;;;;;2230533;56;21059;-71
2020/12/19 03:44:17;;;;;;;7.70;4.75;;;8.00;73.70;;;;;;2450498;56;20963;-71
2020/12/19 03:46:43;;;;;;;8.02;4.70;;;8.10;74.00;;;;;;2224902;55;21054;-71
2020/12/19 03:49:10;;;;;;;9.60;4.70;;;8.10;74.10;;;;;;2235069;55;20975;-71
2020/12/19 03:51:38;;;;;;;7.05;4.20;;;8.10;74.10;;;;;;2207607;56;21005;-71
2020/12/19 03:54:05;;;;;;;7.35;4.37;;;8.20;74.20;;;;;;2228008;56;20965;-71
2020/12/19 03:56:46;;;;;;;8.18;5.00;;;8.20;74.20;;;;;;2233937;55;21076;-71
2020/12/19 03:59:13;;;;;;;5.90;3.83;;;8.30;74.30;;;;;;2416996;55;21000;-71
2020/12/19 04:01:40;;;;;;;5.95;3.67;;;8.30;74.30;;;;;;2225425;55;21015;-71
2020/12/19 04:04:08;;;;;;;8.15;3.80;;;8.30;74.30;;;;;;2420238;55;20961;-71
2020/12/19 04:06:35;;;;;;;5.30;3.40;;;8.40;74.40;;;;;;2239493;56;20949;-71
2020/12/19 04:09:15;;;;;;;5.55;3.60;;;8.40;74.30;;;;;;2240830;56;21033;-71
2020/12/19 04:11:41;;;;;;;5.95;2.75;;;8.40;74.10;;;;;;2419327;56;21015;-71
2020/12/19 04:14:09;;;;;;;7.05;4.40;;;8.50;74.10;;;;;;2446330;56;20967;-71
2020/12/19 04:16:35;;;;;;;6.05;3.95;;;8.50;73.80;;;;;;2462335;55;20996;-72
2020/12/19 04:19:02;;;;;;;5.57;3.78;;;8.50;73.70;;;;;;2239066;56;21008;-71
2020/12/19 04:21:29;;;;;;;6.05;3.30;;;8.50;73.50;;;;;;2448514;56;20983;-71
2020/12/19 04:23:56;;;;;;;5.28;3.37;;;8.50;73.40;;;;;;2236587;56;20969;-71
2020/12/19 04:26:25;;;;;;;5.87;3.28;;;8.50;73.20;;;;;;2457872;55;21120;-71
2020/12/19 04:28:52;;;;;;;7.55;4.60;;;8.50;73.00;;;;;;2225459;55;21478;-71
2020/12/19 04:31:19;;;;;;;6.70;3.87;;;8.50;72.90;;;;;;2446246;56;21498;-71
2020/12/19 04:33:46;;;;;;;5.85;3.60;;;8.50;72.70;;;;;;2232832;55;21540;-71
2020/12/19 04:36:12;;;;;;;5.97;3.42;;;8.40;72.40;;;;;;2215231;56;20992;-71
2020/12/19 04:38:40;;;;;;;6.90;3.28;;;8.40;72.20;;;;;;2462317;55;22035;-71
2020/12/19 04:41:06;;;;;;;4.68;2.75;;;8.40;72.10;;;;;;2462480;55;25417;-71
2020/12/19 04:43:34;;;;;;;5.85;3.25;;;8.40;72.10;;;;;;2237254;55;21040;-71
2020/12/19 04:46:01;;;;;;;6.47;3.65;;;8.30;72.00;;;;;;2230353;55;21072;-71
2020/12/19 04:48:28;;;;;;;6.70;3.75;;;8.30;72.00;;;;;;2239201;56;20980;-71
2020/12/19 04:50:54;;;;;;;5.18;3.00;;;8.30;71.90;;;;;;2463011;55;20980;-71
2020/12/19 04:53:22;;;;;;;5.32;2.60;;;8.20;72.40;;;;;;2231612;56;20959;-70
2020/12/19 04:55:49;;;;;;;6.10;3.45;;;8.20;71.60;;;;;;2459110;55;21121;-71
2020/12/19 04:58:18;;;;;;;6.15;3.40;;;8.10;71.60;;;;;;2232227;56;20995;-70
2020/12/19 05:00:47;;;;;;;5.00;3.03;;;8.10;71.70;;;;;;2417721;56;21034;-71
2020/12/19 05:03:15;;;;;;;5.75;3.20;;;8.10;71.60;;;;;;2231479;56;20957;-71
2020/12/19 05:05:44;;;;;;;5.07;3.03;;;8.10;71.50;;;;;;2238953;56;20960;-71
2020/12/19 05:08:11;;;;;;;5.07;2.70;;;8.00;71.50;;;;;;2233005;56;21875;-71
2020/12/19 05:10:38;;;;;;;4.82;2.50;;;8.00;71.70;;;;;;2444318;55;21087;-70
2020/12/19 05:13:05;;;;;;;4.53;2.55;;;7.90;71.80;;;;;;2456321;55;21035;-71
2020/12/19 05:15:31;;;;;;;4.80;2.45;;;7.90;71.80;;;;;;2229965;55;20950;-71
2020/12/19 05:17:59;;;;;;;4.35;2.45;;;7.90;71.60;;;;;;2445869;56;20955;-71
2020/12/19 05:20:29;;;;;;;3.50;1.73;;;7.90;71.50;;;;;;2455726;55;21866;-71
2020/12/19 05:22:57;;;;;;;3.65;1.80;;;7.80;71.40;;;;;;2228938;56;20961;-71
2020/12/19 05:25:25;;;;;;;5.18;2.60;;;7.80;71.30;;;;;;2238376;56;21004;-70
2020/12/19 05:27:52;;;;;;;6.37;2.60;;;7.80;71.10;;;;;;2238176;56;21021;-71
2020/12/19 05:30:19;;;;;;;7.12;3.35;;;7.70;70.80;;;;;;2229258;56;21511;-71
2020/12/19 05:32:55;;;;;;;6.95;3.40;;;7.60;70.70;;;;;;2228039;55;21465;-70
2020/12/19 05:35:22;;;;;;;8.65;4.10;;;7.60;70.70;;;;;;2240821;56;21517;-71
2020/12/19 05:38:01;;;;;;;7.53;3.33;;;7.60;70.70;;;;;;2450405;56;21003;-70
2020/12/19 05:40:28;;;;;;;8.90;3.90;;;7.50;70.50;;;;;;2454760;55;21091;-70
2020/12/19 05:42:56;;;;;;;10.63;4.47;;;7.40;70.60;;;;;;2228450;55;21049;-71
2020/12/19 05:45:23;;;;;;;8.57;3.67;;;7.40;70.80;;;;;;2229020;55;21055;-71
2020/12/19 05:47:50;;;;;;;7.35;3.37;;;7.40;71.00;;;;;;2458192;55;20941;-70
2020/12/19 05:50:18;;;;;;;8.82;3.60;;;7.30;71.00;;;;;;2228242;56;21004;-71
2020/12/19 05:52:45;;;;;;;6.87;3.45;;;7.30;71.20;;;;;;2238870;55;21796;-71
2020/12/19 05:55:13;;;;;;;8.60;3.75;;;7.30;71.30;;;;;;2241029;56;21430;-70
2020/12/19 05:57:40;;;;;;;9.73;3.62;;;7.20;71.20;;;;;;2445773;56;21360;-70
2020/12/19 06:00:10;;;;;;;7.62;3.37;;;7.20;71.10;;;;;;2225101;56;21040;-70
2020/12/19 06:02:38;;;;;;;7.47;3.47;;;7.20;70.80;;;;;;2238907;56;20953;-70
2020/12/19 06:05:08;;;;;;;5.53;2.90;;;7.20;70.70;;;;;;2462872;55;21883;-70
2020/12/19 06:07:46;;;;;;;6.93;3.25;;;7.10;70.60;;;;;;2239065;56;20996;-70
2020/12/19 06:10:15;;;;;;;7.57;3.58;;;7.00;70.60;;;;;;2238952;56;20984;-71
2020/12/19 06:13:44;;;;;;;8.77;3.97;;;7.00;70.80;;;;;;2241080;56;21423;-70
2020/12/19 06:16:11;;;;;;;6.07;2.90;;;6.90;70.70;;;;;;2456678;55;20951;-71
2020/12/19 06:19:28;;;;;;;6.43;2.78;;;6.90;71.00;;;;;;2447997;55;21027;-71
2020/12/19 06:21:55;;;;;;;7.55;3.62;;;6.90;70.90;;;;;;2240839;56;21128;-71
2020/12/19 06:24:47;;;;;;;5.70;2.95;;;6.90;71.00;;;;;;2239055;56;20953;-71
2020/12/19 06:27:57;;;;;;;6.57;2.90;;;6.80;70.70;;;;;;2445651;55;21052;-71
2020/12/19 06:30:30;;;;;;;4.15;1.98;;;6.80;70.70;;;;;;2232640;55;20952;-71
2020/12/19 06:33:12;;;;;;;6.43;2.78;;;6.70;70.80;;;;;;2236576;56;21022;-70
2020/12/19 06:35:46;;;;;;;5.72;3.17;;;6.70;70.80;;;;;;2233541;56;21025;-71
2020/12/19 06:38:39;;;;;;;5.55;2.72;;;6.70;70.90;;;;;;2462857;55;20987;-71
2020/12/19 06:41:06;;;;;;;7.45;3.17;;;6.60;71.00;;;;;;2238699;56;21063;-71
2020/12/19 06:43:32;;;;;;;6.07;3.10;;;6.60;71.00;;;;;;2229200;55;20917;-71
2020/12/19 06:46:02;;;;;;;6.57;3.37;;;6.60;71.00;;;;;;2235656;56;21027;-70
2020/12/19 06:48:29;;;;;;;5.45;2.95;;;6.50;71.00;;;;;;2442601;55;21451;-70
2020/12/19 06:51:04;;;;;;;5.50;3.15;;;6.50;71.00;;;;;;2241014;56;21499;-70
2020/12/19 06:53:31;;;;;;;6.15;3.00;;;6.50;70.90;;;;;;2462873;55;20961;-70
2020/12/19 06:55:58;;;;;;;7.50;3.30;;;6.50;70.80;;;;;;2463168;55;20993;-70
2020/12/19 06:58:31;;;;;;;5.70;2.80;;;6.40;70.80;;;;;;2459629;55;21858;-69
2020/12/19 07:00:59;;;;;;;8.77;3.83;;;6.40;70.80;;;;;;2418360;56;20986;-71
2020/12/19 07:03:41;;;;;;;6.57;3.55;;;6.40;70.80;;;;;;2442548;55;20983;-71
2020/12/19 07:06:11;;;;;;;9.00;3.90;;;6.40;70.80;;;;;;2452191;55;21067;-71
2020/12/19 07:08:48;;;;;;;7.35;3.90;;;6.30;70.80;;;;;;2441856;55;21003;-70
2020/12/19 07:12:01;;;;;;;5.47;3.33;;;6.30;70.90;;;;;;2228864;55;21022;-71
2020/12/19 07:14:42;;;;;;;8.80;3.65;;;6.20;70.60;;;;;;2418498;56;20983;-71
2020/12/19 07:17:18;;;;;;;7.55;3.58;;;6.20;70.90;;;;;;2455372;56;20937;-70
2020/12/19 07:19:45;;;;;;;7.62;3.62;;;6.20;71.10;;;;;;2462204;55;20945;-70
2020/12/19 07:22:12;;;;;;;6.60;4.00;;;6.20;71.10;;;;;;2458403;55;21015;-71
2020/12/19 07:24:38;;;;;;;7.05;3.85;;;6.20;71.20;;;;;;2450900;56;20974;-71
2020/12/19 07:27:05;;;;;;;6.85;4.10;;;6.20;71.40;;;;;;2462395;55;21056;-71
2020/12/19 07:29:32;;;;;;;7.72;4.62;;;6.20;71.50;;;;;;2238749;56;20983;-71
2020/12/19 07:31:59;;;;;;;7.50;3.50;;;6.10;72.30;;;;;;2207389;56;21829;-71
2020/12/19 07:34:26;;;;;;;6.87;3.47;;;6.10;71.50;;;;;;2462267;55;20980;-71
2020/12/19 07:36:55;;;;;;;7.70;4.35;;;6.10;71.50;;;;;;2228171;56;21010;-71
2020/12/19 07:39:22;;;;;;;7.00;4.15;;;6.10;71.60;;;;;;2461685;55;21091;-71
2020/12/19 07:42:10;;;;;;;6.37;3.65;;;6.10;71.70;;;;;;2445461;55;20999;-70
2020/12/19 07:44:37;;;;;;;7.90;4.37;;;6.10;71.70;;;;;;2225677;55;20988;-71
2020/12/19 07:47:08;;;;;;;6.53;3.33;;;6.10;71.70;;;;;;2238794;55;21013;-71
2020/12/19 07:49:49;;;;;;;7.65;3.92;;;6.10;71.70;;;;;;2453989;56;21050;-71
2020/12/19 07:52:24;;;;;;;6.47;3.92;;;6.10;71.70;;;;;;2232400;56;21044;-70
2020/12/19 07:54:58;;;;;;;8.57;4.43;;;6.10;71.70;;;;;;2238346;56;20960;-71
2020/12/19 07:57:26;;;;;;;7.68;4.60;;;6.10;71.70;;;;;;2233434;56;20999;-71
2020/12/19 07:59:56;;;;;;;6.47;4.15;;;6.10;71.80;;;;;;2451588;55;21004;-70
2020/12/19 08:02:23;;;;;;;6.18;3.95;;;6.10;71.80;;;;;;2238589;56;20969;-71
2020/12/19 08:05:00;;;;;;;6.57;3.90;;;6.10;72.00;;;;;;2446420;56;20939;-72
2020/12/19 08:07:29;;;;;;;8.90;4.15;;;6.10;72.00;;;;;;2229749;56;21448;-71
2020/12/19 08:10:02;;;;;;;7.70;4.25;;;6.10;72.70;;;;;;2230547;55;21015;-71
2020/12/19 08:12:29;;;;;;;7.40;5.00;;;6.10;72.10;;;;;;2228736;56;21039;-70
2020/12/19 08:15:00;;;;;;;8.20;4.45;;;6.20;72.20;;;;;;2229387;55;21499;-71
2020/12/19 08:17:27;;;;;;;7.45;4.43;;;6.10;72.30;;;;;;2446596;55;21023;-71
2020/12/19 08:19:55;;;;;;;6.72;4.35;;;6.10;72.40;;;;;;2447282;55;21036;-71
2020/12/19 08:22:22;;;;;;;6.68;3.87;;;6.20;72.50;;;;;;2461033;56;22137;-71
2020/12/19 08:24:56;;;;;;;7.95;4.93;;;6.20;72.70;;;;;;2447828;55;20957;-71
2020/12/19 08:27:49;;;;;;;14.02;7.55;;;6.20;72.90;;;;;;2462480;55;20977;-71
2020/12/19 08:30:29;;;;;;;15.30;9.02;;;6.30;73.30;;;;;;2462581;55;20992;-71
2020/12/19 08:33:03;;;;;;;13.00;8.07;;;6.30;73.60;;;;;;2226119;55;21062;-71
2020/12/19 08:35:39;;;;;;;13.38;8.25;;;6.30;74.00;;;;;;2238732;56;20965;-70
2020/12/19 08:38:28;;;;;;;13.15;8.43;;;6.40;74.60;;;;;;2238416;56;21100;-71
2020/12/19 08:40:58;;;;;;;13.45;8.13;;;6.50;75.00;;;;;;2457354;55;21015;-71
2020/12/19 08:43:35;;;;;;;12.85;8.32;;;6.60;75.60;;;;;;2440855;55;20978;-71
2020/12/19 08:46:09;;;;;;;10.52;6.97;;;6.70;76.10;;;;;;2455867;55;20965;-71
2020/12/19 08:48:37;;;;;;;11.90;7.00;;;6.80;76.60;;;;;;2238799;56;21004;-71
2020/12/19 08:51:11;;;;;;;10.98;6.37;;;7.00;77.00;;;;;;2461331;55;21148;-71
2020/12/19 08:53:37;;;;;;;9.85;6.32;;;7.10;77.30;;;;;;2228518;56;20976;-72
2020/12/19 08:56:14;;;;;;;9.48;5.87;;;7.20;77.50;;;;;;2462706;55;20968;-71
2020/12/19 08:58:41;;;;;;;7.93;5.40;;;7.40;77.80;;;;;;2238900;56;20999;-72
2020/12/19 09:01:16;;;;;;;11.00;7.35;;;7.50;77.90;;;;;;2448429;55;21012;-71
2020/12/19 09:03:43;;;;;;;15.52;9.65;;;7.70;78.00;;;;;;2231288;56;20955;-72
2020/12/19 09:06:13;;;;;;;14.10;9.27;;;7.80;78.00;;;;;;2462635;55;21001;-71
2020/12/19 09:08:48;;;;;;;14.38;8.57;;;7.90;77.80;;;;;;2462528;55;21012;-71
2020/12/19 09:11:25;;;;;;;11.30;7.93;;;8.00;77.70;;;;;;2207112;57;21030;-71
2020/12/19 09:14:06;;;;;;;11.38;7.22;;;8.10;77.60;;;;;;2454920;55;20933;-71
2020/12/19 09:16:43;;;;;;;13.45;7.60;;;8.30;77.60;;;;;;2448032;55;20980;-71
2020/12/19 09:19:24;;;;;;;11.35;6.80;;;8.40;77.60;;;;;;2228772;56;20954;-72
2020/12/19 09:22:08;;;;;;;9.85;5.90;;;8.50;77.50;;;;;;2237924;56;20993;-72
2020/12/19 09:24:34;;;;;;;9.43;6.20;;;8.60;77.30;;;;;;2462382;55;20977;-72
2020/12/19 09:27:01;;;;;;;8.68;5.72;;;8.70;77.30;;;;;;2237879;56;21433;-72
2020/12/19 09:29:28;;;;;;;8.57;5.45;;;8.80;77.30;;;;;;2225696;55;21500;-72
2020/12/19 09:31:55;;;;;;;8.90;5.50;;;8.90;77.30;;;;;;2462634;55;21012;-72
2020/12/19 09:34:21;;;;;;;9.45;6.12;;;8.90;77.10;;;;;;2238121;56;20977;-72
2020/12/19 09:36:49;;;;;;;12.80;7.18;;;9.00;77.00;;;;;;2239014;56;20996;-72
2020/12/19 09:39:18;;;;;;;9.52;5.87;;;9.10;76.90;;;;;;2452199;56;20987;-71
2020/12/19 09:41:45;;;;;;;11.18;6.85;;;9.20;76.60;;;;;;2225581;55;21003;-72
2020/12/19 09:44:11;;;;;;;8.95;5.68;;;9.20;76.60;;;;;;2227168;55;21034;-72
2020/12/19 09:46:37;;;;;;;7.95;5.68;;;9.30;76.60;;;;;;2238840;56;20980;-72
2020/12/19 09:49:05;;;;;;;10.05;5.70;;;9.40;76.60;;;;;;2461865;55;21024;-72
2020/12/19 09:51:32;;;;;;;7.22;4.62;;;9.40;76.60;;;;;;2231807;55;20983;-72
2020/12/19 09:53:58;;;;;;;7.00;4.50;;;9.50;76.80;;;;;;2235336;55;20980;-72
2020/12/19 09:56:28;;;;;;;9.38;5.57;;;9.60;77.10;;;;;;2238721;56;20968;-71
2020/12/19 09:58:54;;;;;;;8.98;6.05;;;9.60;77.20;;;;;;2224564;56;20954;-71
2020/12/19 10:01:21;;;;;;;12.02;8.13;;;9.70;77.80;;;;;;2235619;56;20952;-72
2020/12/19 10:03:47;;;;;;;11.50;7.68;;;9.80;77.10;;;;;;2443010;55;20963;-72
2020/12/19 10:06:33;;;;;;;10.18;6.55;;;9.90;77.00;;;;;;2226605;55;21114;-71
2020/12/19 10:08:59;;;;;;;24.35;12.07;;;10.00;75.40;;;;;;2232644;56;21441;-72
2020/12/19 10:11:27;;;;;;;16.98;9.48;;;10.10;75.80;;;;;;2236274;56;21497;-72
2020/12/19 10:13:54;;;;;;;11.85;6.85;;;10.10;75.70;;;;;;2226334;56;20945;-71
2020/12/19 10:16:20;;;;;;;11.20;6.43;;;10.20;75.90;;;;;;2237192;56;20992;-72
2020/12/19 10:18:47;;;;;;;9.90;6.07;;;10.30;76.00;;;;;;2237162;56;20956;-72
2020/12/19 10:21:14;;;;;;;9.50;5.35;;;10.30;76.00;;;;;;2230254;55;21629;-72
2020/12/19 10:23:41;;;;;;;11.70;7.32;;;10.40;75.90;;;;;;2224256;55;21591;-72
2020/12/19 10:26:10;;;;;;;12.65;7.62;;;10.50;76.10;;;;;;2219988;55;21043;-72
2020/12/19 10:28:37;;;;;;;13.30;7.93;;;10.60;76.00;;;;;;2218971;55;21603;-72
2020/12/19 10:31:04;;;;;;;10.77;7.03;;;10.60;76.00;;;;;;2233535;55;21051;-72
2020/12/19 10:33:31;;;;;;;9.30;6.45;;;10.70;76.00;;;;;;2455890;55;21648;-70
2020/12/19 10:35:58;;;;;;;11.32;6.12;;;10.80;76.00;;;;;;2233386;56;21796;-72
2020/12/19 10:38:24;;;;;;;9.25;6.82;;;10.90;76.10;;;;;;2229183;56;21052;-72
2020/12/19 10:40:57;;;;;;;10.20;7.25;;;11.00;76.30;;;;;;2199121;56;21820;-72
2020/12/19 10:43:24;;;;;;;11.90;8.00;;;11.00;76.20;;;;;;2228432;55;20980;-72
2020/12/19 10:45:51;;;;;;;9.68;6.75;;;11.10;76.10;;;;;;2230386;56;21016;-72
2020/12/19 10:48:18;;;;;;;10.85;6.95;;;11.20;75.90;;;;;;2224089;56;20975;-72
2020/12/19 10:50:45;;;;;;;10.82;7.00;;;11.30;76.00;;;;;;2433003;55;21001;-72
2020/12/19 10:53:13;;;;;;;11.40;7.18;;;11.40;75.90;;;;;;2231817;56;20968;-72
2020/12/19 10:55:40;;;;;;;10.50;6.70;;;11.40;75.80;;;;;;2237271;56;21494;-72
2020/12/19 10:58:06;;;;;;;10.30;6.47;;;11.50;75.80;;;;;;2236233;56;20982;-72
2020/12/19 11:00:33;;;;;;;8.18;5.62;;;11.60;75.90;;;;;;2221574;55;20961;-72
2020/12/19 11:02:59;;;;;;;8.93;5.18;;;11.60;75.80;;;;;;2237002;56;21010;-72
2020/12/19 11:05:25;;;;;;;7.97;5.68;;;11.70;75.80;;;;;;2225342;56;21032;-72
2020/12/19 11:07:52;;;;;;;8.07;5.45;;;11.80;75.80;;;;;;2222835;56;21503;-72
2020/12/19 11:10:18;;;;;;;7.97;5.40;;;11.80;76.30;;;;;;2230859;55;21466;-72
2020/12/19 11:12:45;;;;;;;11.93;6.43;;;11.90;75.50;;;;;;2217994;56;21119;-73
2020/12/19 11:15:11;;;;;;;9.85;5.60;;;11.90;75.20;;;;;;2436224;56;20991;-72
2020/12/19 11:17:38;;;;;;;10.50;7.05;;;12.00;75.30;;;;;;2429939;55;21472;-73
2020/12/19 11:20:06;;;;;;;10.35;7.03;;;12.00;75.10;;;;;;2208833;55;20966;-72
2020/12/19 11:22:32;;;;;;;10.00;6.45;;;12.00;75.00;;;;;;2426504;55;21007;-71
2020/12/19 11:24:59;;;;;;;9.50;6.35;;;12.10;74.90;;;;;;2188295;56;21531;-72
2020/12/19 11:27:25;;;;;;;9.82;6.32;;;12.10;74.90;;;;;;2217142;56;20937;-73
2020/12/19 11:29:58;;;;;;;8.85;6.32;;;12.20;75.00;;;;;;2420319;56;21737;-71
2020/12/19 11:32:27;;;;;;;7.70;5.53;;;12.20;74.80;;;;;;2431573;55;21110;-72
2020/12/19 11:34:56;;;;;;;9.55;6.82;;;12.30;75.00;;;;;;2210546;56;20977;-72
2020/12/19 11:37:24;;;;;;;9.70;6.62;;;12.30;74.80;;;;;;2204426;56;20974;-73
2020/12/19 11:39:53;;;;;;;12.25;8.85;;;12.30;74.80;;;;;;2205480;55;22189;-72
2020/12/19 11:42:20;;;;;;;11.48;8.35;;;12.40;74.90;;;;;;2218098;55;21591;-72
2020/12/19 11:44:47;;;;;;;10.45;8.10;;;12.40;74.70;;;;;;2221378;56;21972;-72
2020/12/19 11:47:35;;;;;;;12.73;8.68;;;12.50;74.70;;;;;;2206808;56;21073;-72
2020/12/19 11:50:03;;;;;;;11.93;7.80;;;12.50;73.90;;;;;;2192248;56;21567;-71
2020/12/19 11:52:33;;;;;;;10.25;7.45;;;12.50;74.50;;;;;;2223530;56;21004;-73
2020/12/19 11:54:59;;;;;;;11.07;7.97;;;12.60;74.40;;;;;;2224466;56;20948;-72
2020/12/19 11:57:26;;;;;;;10.88;7.75;;;12.60;74.10;;;;;;2435814;55;21050;-72
2020/12/19 11:59:52;;;;;;;12.57;7.78;;;12.60;73.70;;;;;;2211147;55;21013;-72
2020/12/19 12:02:19;;;;;;;12.52;7.53;;;12.60;73.50;;;;;;2231391;55;21065;-72
2020/12/19 12:04:45;;;;;;;10.50;6.57;;;12.60;73.30;;;;;;2214410;56;20996;-72
2020/12/19 12:07:12;;;;;;;10.45;7.37;;;12.60;73.30;;;;;;2229531;56;20976;-72
2020/12/19 12:09:38;;;;;;;9.65;7.35;;;12.60;73.50;;;;;;2454731;55;21630;-72
2020/12/19 12:12:05;;;;;;;11.50;7.82;;;12.60;73.70;;;;;;2221901;56;20997;-72
2020/12/19 12:14:31;;;;;;;10.77;7.45;;;12.60;73.90;;;;;;2235709;56;21005;-72
2020/12/19 12:16:58;;;;;;;10.70;7.97;;;12.60;74.00;;;;;;2234705;56;21072;-72
2020/12/19 12:19:25;;;;;;;13.02;8.82;;;12.60;73.90;;;;;;2236509;56;20961;-72
2020/12/19 12:21:52;;;;;;;12.32;8.75;;;12.70;74.00;;;;;;2220385;56;21072;-72
2020/12/19 12:24:19;;;;;;;12.93;9.05;;;12.60;73.80;;;;;;2227617;56;21055;-72
2020/12/19 12:26:46;;;;;;;13.05;9.13;;;12.70;73.90;;;;;;2224362;55;20983;-72
2020/12/19 12:29:12;;;;;;;15.50;9.07;;;12.70;73.90;;;;;;2437836;55;21017;-72
2020/12/19 12:31:40;;;;;;;11.52;7.93;;;12.70;73.90;;;;;;2231573;55;20948;-72
2020/12/19 12:34:07;;;;;;;11.23;7.28;;;12.80;74.00;;;;;;2236094;56;21070;-73
2020/12/19 12:36:33;;;;;;;11.18;7.60;;;12.80;74.20;;;;;;2440489;55;21024;-72
2020/12/19 12:39:01;;;;;;;13.62;8.88;;;12.80;74.30;;;;;;2235511;56;21118;-72
2020/12/19 12:41:29;;;;;;;14.87;9.38;;;12.80;74.30;;;;;;2441668;56;21017;-72
2020/12/19 12:43:55;;;;;;;13.68;8.50;;;12.80;74.20;;;;;;2218800;55;20998;-72
2020/12/19 12:46:21;;;;;;;11.45;7.50;;;12.80;73.90;;;;;;2231573;55;21398;-72
2020/12/19 12:48:48;;;;;;;12.37;7.95;;;12.80;73.90;;;;;;2457000;55;21056;-72
2020/12/19 12:51:15;;;;;;;11.32;8.18;;;12.90;74.00;;;;;;2232759;56;21012;-72
2020/12/19 12:53:44;;;;;;;12.75;9.10;;;12.90;73.90;;;;;;2456295;55;21009;-72
2020/12/19 12:56:11;;;;;;;11.50;6.80;;;12.90;73.90;;;;;;2202784;57;21805;-72
2020/12/19 12:58:37;;;;;;;11.38;7.57;;;12.90;73.90;;;;;;2226743;56;21036;-72
2020/12/19 13:01:05;;;;;;;11.48;8.85;;;12.90;73.80;;;;;;2236720;55;21402;-72
2020/12/19 13:03:31;;;;;;;12.52;8.27;;;12.90;73.80;;;;;;2442833;55;21040;-71